Time;durP1;ratioP1;P1;durP2;ratioP2;P2;SDS_P1;SDS_P2;PMS_P1;PMS_P2;Temp;Humidity;BMP_temperature;BMP_pressure;BME280_temperature;BME280_humidity;BME280_pressure;Samples;Min_cycle;Max_cycle;Signal;HPM_P1;HPM_P2
2023/11/21 00:01:27;;;;;;;;;10.33;6.67;;;;;;;;5052193;28;45501;-70
2023/11/21 00:03:55;;;;;;;;;9.33;9.00;;;;;;;;5054365;28;45418;-69
2023/11/21 00:06:20;;;;;;;;;12.33;8.67;;;;;;;;5054645;28;45544;-74
2023/11/21 00:08:45;;;;;;;;;10.67;8.00;;;;;;;;5055676;28;45446;-69
2023/11/21 00:11:10;;;;;;;;;9.33;7.67;;;;;;;;5053766;28;45345;-72
2023/11/21 00:13:35;;;;;;;;;7.00;4.67;;;;;;;;5054066;28;45356;-72
2023/11/21 00:16:01;;;;;;;;;8.67;7.33;;;;;;;;5055874;28;45587;-71
2023/11/21 00:18:26;;;;;;;;;10.67;7.67;;;;;;;;5053850;28;46427;-70
2023/11/21 00:20:51;;;;;;;;;10.67;6.00;;;;;;;;5055148;28;45216;-69
2023/11/21 00:23:16;;;;;;;;;6.33;5.33;;;;;;;;5056553;28;45347;-70
2023/11/21 00:25:41;;;;;;;;;12.00;6.33;;;;;;;;5058809;28;45617;-69
2023/11/21 00:28:07;;;;;;;;;6.33;6.33;;;;;;;;5058157;28;45726;-71
2023/11/21 00:30:32;;;;;;;;;10.00;9.00;;;;;;;;5055152;28;45533;-73
2023/11/21 00:32:57;;;;;;;;;6.00;6.00;;;;;;;;5055587;28;45588;-71
2023/11/21 00:35:22;;;;;;;;;11.33;6.00;;;;;;;;5054388;28;45451;-73
2023/11/21 00:37:49;;;;;;;;;8.00;7.67;;;;;;;;5052432;28;46520;-71
2023/11/21 00:40:15;;;;;;;;;7.33;7.33;;;;;;;;5051908;28;45429;-74
2023/11/21 00:42:40;;;;;;;;;9.67;9.00;;;;;;;;5056531;28;45361;-72
2023/11/21 00:45:06;;;;;;;;;11.00;9.00;;;;;;;;5057216;28;45441;-69
2023/11/21 00:47:31;;;;;;;;;10.00;5.33;;;;;;;;5056342;28;46448;-72
2023/11/21 00:49:56;;;;;;;;;7.67;6.00;;;;;;;;5054312;28;45381;-69
2023/11/21 00:52:22;;;;;;;;;10.00;8.00;;;;;;;;5056494;28;45521;-73
2023/11/21 00:54:48;;;;;;;;;8.00;8.00;;;;;;;;5054021;28;45731;-70
2023/11/21 00:57:13;;;;;;;;;9.00;6.67;;;;;;;;5053981;28;46669;-70
2023/11/21 00:59:38;;;;;;;;;9.67;7.33;;;;;;;;5047635;28;45287;-73
2023/11/21 01:02:04;;;;;;;;;10.67;6.00;;;;;;;;5052156;28;45499;-71
2023/11/21 01:04:30;;;;;;;;;8.00;6.00;;;;;;;;5058141;28;45551;-69
2023/11/21 01:06:55;;;;;;;;;8.00;5.33;;;;;;;;5057960;28;46513;-72
2023/11/21 01:09:20;;;;;;;;;9.00;6.00;;;;;;;;5058001;28;45358;-72
2023/11/21 01:11:46;;;;;;;;;10.00;9.00;;;;;;;;5052452;28;45366;-71
2023/11/21 01:14:13;;;;;;;;;12.00;7.33;;;;;;;;5056253;28;45509;-70
2023/11/21 01:16:38;;;;;;;;;5.00;5.00;;;;;;;;5052391;28;46734;-70
2023/11/21 01:19:04;;;;;;;;;8.33;6.00;;;;;;;;5052990;28;45500;-69
2023/11/21 01:21:30;;;;;;;;;9.00;7.33;;;;;;;;5047868;28;45418;-74
2023/11/21 01:23:55;;;;;;;;;13.00;8.00;;;;;;;;5054491;28;45744;-73
2023/11/21 01:26:20;;;;;;;;;8.00;6.00;;;;;;;;5049268;28;47284;-69
2023/11/21 01:28:48;;;;;;;;;12.33;6.67;;;;;;;;5048160;28;45501;-74
2023/11/21 01:40:22;;;;;;;;;9.33;6.00;;;;;;;;5054404;28;45560;-70
2023/11/21 01:42:48;;;;;;;;;8.00;5.67;;;;;;;;5044904;28;45620;-70
2023/11/21 01:45:13;;;;;;;;;9.00;5.67;;;;;;;;5055891;28;45293;-73
2023/11/21 01:47:41;;;;;;;;;8.33;4.67;;;;;;;;5053679;28;45762;-73
2023/11/21 01:50:07;;;;;;;;;10.33;5.33;;;;;;;;5055456;28;45345;-69
2023/11/21 01:52:34;;;;;;;;;8.33;4.67;;;;;;;;5052503;28;45469;-69
2023/11/21 01:55:00;;;;;;;;;6.00;6.00;;;;;;;;5053370;28;45343;-69
2023/11/21 01:57:25;;;;;;;;;9.00;5.00;;;;;;;;5052555;28;46634;-72
2023/11/21 01:59:53;;;;;;;;;7.67;5.00;;;;;;;;5051194;28;45534;-72
2023/11/21 02:02:18;;;;;;;;;8.00;5.33;;;;;;;;5052916;28;45451;-71
2023/11/21 02:04:44;;;;;;;;;5.00;4.00;;;;;;;;5055339;28;45413;-69
2023/11/21 02:07:10;;;;;;;;;7.67;6.00;;;;;;;;5054117;28;46137;-69
2023/11/21 02:09:38;;;;;;;;;7.33;7.33;;;;;;;;5055416;28;45481;-71
2023/11/21 02:12:04;;;;;;;;;5.67;5.67;;;;;;;;5049910;28;45469;-70
2023/11/21 02:14:30;;;;;;;;;5.67;5.00;;;;;;;;5054697;28;45306;-71
2023/11/21 02:16:57;;;;;;;;;8.00;6.00;;;;;;;;5055690;28;46341;-73
2023/11/21 02:19:25;;;;;;;;;4.00;3.67;;;;;;;;5049990;28;45357;-71
2023/11/21 02:21:51;;;;;;;;;5.33;5.33;;;;;;;;5048253;28;45937;-69
2023/11/21 02:24:17;;;;;;;;;7.33;5.67;;;;;;;;5055155;28;45478;-71
2023/11/21 02:26:43;;;;;;;;;4.00;4.00;;;;;;;;5051387;28;45856;-69
2023/11/21 02:29:11;;;;;;;;;7.33;4.00;;;;;;;;5050157;28;45472;-69
2023/11/21 02:31:45;;;;;;;;;5.00;4.00;;;;;;;;5046204;28;45215;-72
2023/11/21 02:34:13;;;;;;;;;6.00;4.67;;;;;;;;5054318;28;45357;-71
2023/11/21 02:36:38;;;;;;;;;7.00;5.00;;;;;;;;5054340;28;46428;-70
2023/11/21 02:39:03;;;;;;;;;7.67;4.33;;;;;;;;5051859;28;45623;-71
2023/11/21 02:41:28;;;;;;;;;4.00;2.67;;;;;;;;5050806;28;45489;-72
2023/11/21 02:43:54;;;;;;;;;5.33;5.00;;;;;;;;5053771;28;45208;-71
2023/11/21 02:46:19;;;;;;;;;4.00;4.00;;;;;;;;5054026;28;45543;-71
2023/11/21 02:48:44;;;;;;;;;8.33;6.00;;;;;;;;5052341;28;45274;-69
2023/11/21 02:51:09;;;;;;;;;4.00;4.00;;;;;;;;5054839;28;45409;-69
2023/11/21 02:53:35;;;;;;;;;9.00;6.00;;;;;;;;5051363;28;45615;-70
2023/11/21 02:56:00;;;;;;;;;5.67;4.67;;;;;;;;5052283;28;46273;-73
2023/11/21 02:58:25;;;;;;;;;7.67;4.33;;;;;;;;5053104;28;45428;-70
2023/11/21 03:00:51;;;;;;;;;5.67;3.33;;;;;;;;5055346;28;45358;-71
2023/11/21 03:03:16;;;;;;;;;4.33;4.33;;;;;;;;5053230;28;45525;-70
2023/11/21 03:05:42;;;;;;;;;5.67;5.67;;;;;;;;5053796;28;45713;-70
2023/11/21 03:08:07;;;;;;;;;7.00;4.33;;;;;;;;5054130;28;45258;-70
2023/11/21 03:10:33;;;;;;;;;9.33;5.33;;;;;;;;5054053;28;46483;-73
2023/11/21 03:12:58;;;;;;;;;4.67;4.00;;;;;;;;5054618;28;45299;-71
2023/11/21 03:15:23;;;;;;;;;5.00;5.00;;;;;;;;5051844;28;46568;-72
2023/11/21 03:17:49;;;;;;;;;6.00;4.67;;;;;;;;5054290;28;45381;-70
2023/11/21 03:20:16;;;;;;;;;7.67;6.00;;;;;;;;5054673;28;45258;-72
2023/11/21 03:22:41;;;;;;;;;5.33;4.00;;;;;;;;5053599;28;47011;-69
2023/11/21 03:25:10;;;;;;;;;9.33;6.00;;;;;;;;5049396;28;46448;-70
2023/11/21 03:27:35;;;;;;;;;5.00;5.00;;;;;;;;5054825;28;45458;-71
2023/11/21 03:30:01;;;;;;;;;4.00;3.00;;;;;;;;5051575;28;45318;-72
2023/11/21 03:32:26;;;;;;;;;6.33;4.67;;;;;;;;5050092;28;45699;-73
2023/11/21 03:34:57;;;;;;;;;5.33;4.00;;;;;;;;5053985;28;45544;-69
2023/11/21 03:37:23;;;;;;;;;8.33;5.67;;;;;;;;5053702;28;45470;-69
2023/11/21 03:39:48;;;;;;;;;6.67;6.67;;;;;;;;5052498;28;45488;-72
2023/11/21 03:42:13;;;;;;;;;7.67;6.00;;;;;;;;5053421;28;45436;-71
2023/11/21 03:44:38;;;;;;;;;6.33;3.00;;;;;;;;5047585;28;46388;-73
2023/11/21 03:47:03;;;;;;;;;5.33;4.00;;;;;;;;5053217;28;45584;-69
2023/11/21 03:49:29;;;;;;;;;7.67;4.33;;;;;;;;5049675;28;45413;-71
2023/11/21 03:51:54;;;;;;;;;7.67;6.00;;;;;;;;5053926;28;45461;-70
2023/11/21 03:54:19;;;;;;;;;9.00;6.00;;;;;;;;5047525;28;46301;-72
2023/11/21 03:56:44;;;;;;;;;6.00;3.67;;;;;;;;5050170;28;45742;-70
2023/11/21 03:59:09;;;;;;;;;9.67;7.00;;;;;;;;5057366;28;45281;-69
2023/11/21 04:01:35;;;;;;;;;6.00;6.00;;;;;;;;5055975;28;46477;-72
2023/11/21 04:04:00;;;;;;;;;5.00;5.00;;;;;;;;5052693;28;46192;-73
2023/11/21 04:06:25;;;;;;;;;9.00;6.00;;;;;;;;5057634;28;45199;-69
2023/11/21 04:08:50;;;;;;;;;11.67;8.00;;;;;;;;5057451;28;45585;-70
2023/11/21 04:11:15;;;;;;;;;12.00;6.00;;;;;;;;5057328;28;45481;-69
2023/11/21 04:13:42;;;;;;;;;5.67;5.67;;;;;;;;5057573;28;45494;-72
2023/11/21 04:16:07;;;;;;;;;5.00;5.00;;;;;;;;5053856;28;46789;-70
2023/11/21 04:18:33;;;;;;;;;8.33;5.00;;;;;;;;5053363;28;45631;-70
2023/11/21 04:20:58;;;;;;;;;6.33;5.67;;;;;;;;5053430;28;45356;-73
2023/11/21 04:23:23;;;;;;;;;8.67;5.00;;;;;;;;5057393;28;46750;-72
2023/11/21 04:25:49;;;;;;;;;9.33;4.67;;;;;;;;5046472;28;45580;-73
2023/11/21 04:28:14;;;;;;;;;10.33;7.00;;;;;;;;5056912;28;45310;-69
2023/11/21 04:30:39;;;;;;;;;9.33;6.67;;;;;;;;5056424;28;45474;-69
2023/11/21 04:33:04;;;;;;;;;9.67;8.00;;;;;;;;5056677;28;45586;-71
2023/11/21 04:35:29;;;;;;;;;9.33;9.00;;;;;;;;5057490;28;45497;-72
2023/11/21 04:37:55;;;;;;;;;7.33;7.33;;;;;;;;5056991;28;45430;-69
2023/11/21 04:40:20;;;;;;;;;8.00;8.00;;;;;;;;5054202;28;45511;-72
2023/11/21 04:42:46;;;;;;;;;9.33;9.33;;;;;;;;5056557;28;46713;-71
2023/11/21 04:45:11;;;;;;;;;7.00;6.00;;;;;;;;5058088;28;45839;-70
2023/11/21 04:47:37;;;;;;;;;12.00;10.67;;;;;;;;5051781;28;45863;-71
2023/11/21 04:50:03;;;;;;;;;9.67;9.67;;;;;;;;5056444;28;45344;-69
2023/11/21 04:52:28;;;;;;;;;11.00;9.00;;;;;;;;5055654;28;45643;-69
2023/11/21 04:54:54;;;;;;;;;10.00;10.00;;;;;;;;5056800;28;45486;-69
2023/11/21 04:57:19;;;;;;;;;14.67;11.00;;;;;;;;5057152;28;45536;-72
2023/11/21 04:59:44;;;;;;;;;13.67;10.67;;;;;;;;5054043;28;45685;-71
2023/11/21 05:02:10;;;;;;;;;9.33;9.00;;;;;;;;5055829;28;47338;-69
2023/11/21 05:04:35;;;;;;;;;10.00;10.00;;;;;;;;5051675;28;46426;-74
2023/11/21 05:07:00;;;;;;;;;13.00;11.33;;;;;;;;5051180;28;46823;-69
2023/11/21 05:09:26;;;;;;;;;10.00;10.00;;;;;;;;5052201;28;45438;-72
2023/11/21 05:11:51;;;;;;;;;17.00;12.00;;;;;;;;5051153;28;46422;-70
2023/11/21 05:14:16;;;;;;;;;20.00;11.67;;;;;;;;5055741;28;45474;-69
2023/11/21 05:16:42;;;;;;;;;10.00;10.00;;;;;;;;5056293;28;45476;-70
2023/11/21 05:19:07;;;;;;;;;9.67;9.67;;;;;;;;5054821;28;45420;-72
2023/11/21 05:21:32;;;;;;;;;13.00;8.33;;;;;;;;5054590;28;45726;-71
2023/11/21 05:23:58;;;;;;;;;8.33;8.33;;;;;;;;5053599;28;45422;-71
2023/11/21 05:26:23;;;;;;;;;9.67;9.33;;;;;;;;5053301;28;45545;-72
2023/11/21 05:28:48;;;;;;;;;9.00;6.67;;;;;;;;5055988;28;45472;-74
2023/11/21 05:31:13;;;;;;;;;9.33;8.00;;;;;;;;5055220;28;46132;-70
2023/11/21 05:33:38;;;;;;;;;10.67;9.33;;;;;;;;5055048;28;45406;-73
2023/11/21 05:36:04;;;;;;;;;9.33;7.67;;;;;;;;5054938;28;45505;-72
2023/11/21 05:38:29;;;;;;;;;10.33;10.33;;;;;;;;5055165;28;46892;-71
2023/11/21 05:40:54;;;;;;;;;12.33;10.33;;;;;;;;5054925;28;45442;-71
2023/11/21 05:43:19;;;;;;;;;9.67;9.67;;;;;;;;5054971;28;47075;-72
2023/11/21 05:45:45;;;;;;;;;17.00;13.67;;;;;;;;5056132;28;45367;-71
2023/11/21 05:48:10;;;;;;;;;11.00;10.67;;;;;;;;5053514;28;45445;-72
2023/11/21 05:50:35;;;;;;;;;13.33;12.00;;;;;;;;5053786;28;45709;-74
2023/11/21 05:53:00;;;;;;;;;9.67;9.67;;;;;;;;5056532;28;45265;-71
2023/11/21 05:55:26;;;;;;;;;11.00;10.67;;;;;;;;5046744;28;45375;-69
2023/11/21 05:57:51;;;;;;;;;13.00;12.00;;;;;;;;5048714;28;45467;-71
2023/11/21 06:00:22;;;;;;;;;9.67;9.67;;;;;;;;5053667;28;46039;-71
2023/11/21 06:02:50;;;;;;;;;10.33;10.33;;;;;;;;5055327;28;45492;-69
2023/11/21 06:05:15;;;;;;;;;10.00;10.00;;;;;;;;5052001;28;45517;-71
2023/11/21 06:07:40;;;;;;;;;11.33;11.33;;;;;;;;5056031;28;45478;-72
2023/11/21 06:10:11;;;;;;;;;18.00;12.67;;;;;;;;5054500;28;46755;-70
2023/11/21 06:12:36;;;;;;;;;11.67;9.33;;;;;;;;5055116;28;45431;-69
2023/11/21 06:15:04;;;;;;;;;16.33;10.33;;;;;;;;5053924;28;45377;-69
2023/11/21 06:17:30;;;;;;;;;10.33;10.00;;;;;;;;5055823;28;45408;-69
2023/11/21 06:19:55;;;;;;;;;12.00;10.00;;;;;;;;5053202;28;45666;-69
2023/11/21 06:22:20;;;;;;;;;11.00;11.00;;;;;;;;5054036;28;45559;-68
2023/11/21 06:24:45;;;;;;;;;13.33;10.00;;;;;;;;5049429;28;45496;-69
2023/11/21 06:27:10;;;;;;;;;10.75;9.75;;;;;;;;5053907;28;45593;-69
2023/11/21 06:29:36;;;;;;;;;9.67;9.67;;;;;;;;5053816;28;46586;-70
2023/11/21 06:32:04;;;;;;;;;11.67;10.33;;;;;;;;5056044;28;45666;-70
2023/11/21 06:34:30;;;;;;;;;7.33;7.33;;;;;;;;5053601;28;45201;-68
2023/11/21 06:36:55;;;;;;;;;11.33;10.00;;;;;;;;5053259;28;45516;-68
2023/11/21 06:39:22;;;;;;;;;10.67;10.00;;;;;;;;5047152;28;45805;-68
2023/11/21 06:41:48;;;;;;;;;10.33;9.00;;;;;;;;5054788;28;45348;-71
2023/11/21 06:44:13;;;;;;;;;11.00;9.00;;;;;;;;5051414;28;45502;-68
2023/11/21 06:46:42;;;;;;;;;13.00;10.00;;;;;;;;5045208;28;45646;-68
2023/11/21 06:49:07;;;;;;;;;4.33;4.33;;;;;;;;5045208;28;47545;-67
2023/11/21 06:51:32;;;;;;;;;11.67;10.00;;;;;;;;5040238;28;45702;-68
2023/11/21 06:53:57;;;;;;;;;12.00;9.00;;;;;;;;5053065;28;45488;-69
2023/11/21 06:56:22;;;;;;;;;9.00;9.00;;;;;;;;5055861;28;45552;-69
2023/11/21 06:58:48;;;;;;;;;8.67;8.67;;;;;;;;5053427;28;45612;-69
2023/11/21 07:01:14;;;;;;;;;10.00;10.00;;;;;;;;5054617;28;45271;-69
2023/11/21 07:03:41;;;;;;;;;8.33;8.33;;;;;;;;5054441;28;45451;-69
2023/11/21 07:06:07;;;;;;;;;9.00;9.00;;;;;;;;5054219;28;45539;-69
2023/11/21 07:08:32;;;;;;;;;10.00;9.33;;;;;;;;5055002;28;46411;-69
2023/11/21 07:10:57;;;;;;;;;11.00;7.67;;;;;;;;5055206;28;45328;-69
2023/11/21 07:13:22;;;;;;;;;10.33;9.00;;;;;;;;5053835;28;45472;-69
2023/11/21 07:15:49;;;;;;;;;9.67;9.67;;;;;;;;5055114;28;45465;-68
2023/11/21 07:18:14;;;;;;;;;10.33;9.67;;;;;;;;5053428;28;46208;-71
2023/11/21 07:20:39;;;;;;;;;12.00;10.33;;;;;;;;5054550;28;45511;-69
2023/11/21 07:23:05;;;;;;;;;13.00;11.67;;;;;;;;5054998;28;45360;-68
2023/11/21 07:25:31;;;;;;;;;10.67;9.33;;;;;;;;5046700;28;45589;-69
2023/11/21 07:27:56;;;;;;;;;13.67;13.00;;;;;;;;5051623;28;46330;-72
2023/11/21 07:30:22;;;;;;;;;12.67;11.00;;;;;;;;5055382;28;46449;-73
2023/11/21 07:32:47;;;;;;;;;12.00;11.00;;;;;;;;5049158;28;45608;-73
2023/11/21 07:35:13;;;;;;;;;13.33;12.00;;;;;;;;5051814;28;45692;-71
2023/11/21 07:37:38;;;;;;;;;15.67;12.33;;;;;;;;5048892;28;46615;-71
2023/11/21 07:40:03;;;;;;;;;12.00;10.00;;;;;;;;5050919;28;45471;-71
2023/11/21 07:42:28;;;;;;;;;10.67;10.67;;;;;;;;5049276;28;45481;-70
2023/11/21 07:44:53;;;;;;;;;18.33;14.00;;;;;;;;5051020;28;45498;-70
2023/11/21 07:47:19;;;;;;;;;17.00;15.33;;;;;;;;5048236;28;45998;-71
2023/11/21 07:52:16;;;;;;;;;9.67;8.00;;;;;;;;5012356;28;45625;-70
2023/11/21 07:54:42;;;;;;;;;14.75;12.00;;;;;;;;5013245;28;45496;-73
2023/11/21 07:57:07;;;;;;;;;14.33;11.00;;;;;;;;4996455;28;48249;-70
2023/11/21 07:59:32;;;;;;;;;12.33;12.00;;;;;;;;4994218;28;46453;-74
2023/11/21 08:01:57;;;;;;;;;13.33;11.67;;;;;;;;5010502;28;45843;-71
2023/11/21 08:04:23;;;;;;;;;12.00;12.00;;;;;;;;5012089;28;45574;-72
2023/11/21 08:06:48;;;;;;;;;14.33;13.67;;;;;;;;5009053;28;46139;-70
2023/11/21 08:09:15;;;;;;;;;17.00;14.33;;;;;;;;5010827;28;45848;-71
2023/11/21 08:11:40;;;;;;;;;17.00;12.67;;;;;;;;5012641;28;45430;-72
2023/11/21 08:14:05;;;;;;;;;16.25;14.75;;;;;;;;5011075;28;45352;-72
2023/11/21 08:16:30;;;;;;;;;20.00;13.33;;;;;;;;5015364;28;46479;-73
2023/11/21 08:18:56;;;;;;;;;15.00;13.67;;;;;;;;5011136;28;45756;-73
2023/11/21 08:21:23;;;;;;;;;12.67;12.67;;;;;;;;5010989;28;45514;-71
2023/11/21 08:23:53;;;;;;;;;14.67;11.67;;;;;;;;5012042;28;45467;-72
2023/11/21 08:26:18;;;;;;;;;14.00;12.33;;;;;;;;5009206;28;45741;-72
2023/11/21 08:28:44;;;;;;;;;16.00;14.00;;;;;;;;5012122;28;45538;-71
2023/11/21 08:31:09;;;;;;;;;20.67;14.33;;;;;;;;5010011;28;45395;-71
2023/11/21 08:33:34;;;;;;;;;18.33;16.33;;;;;;;;5012510;28;45616;-71
2023/11/21 08:36:01;;;;;;;;;15.33;14.00;;;;;;;;5013486;28;45909;-74
2023/11/21 08:38:26;;;;;;;;;17.00;15.67;;;;;;;;5013075;28;45512;-72
2023/11/21 08:40:51;;;;;;;;;17.00;11.33;;;;;;;;5011356;28;45695;-72
2023/11/21 08:43:19;;;;;;;;;20.33;13.00;;;;;;;;5014017;28;45460;-71
2023/11/21 08:45:44;;;;;;;;;22.33;14.33;;;;;;;;5015410;28;46852;-71
2023/11/21 08:48:11;;;;;;;;;18.33;15.33;;;;;;;;5016935;28;45705;-75
2023/11/21 08:50:36;;;;;;;;;17.67;15.00;;;;;;;;5014353;28;45396;-72
2023/11/21 08:53:01;;;;;;;;;17.67;14.67;;;;;;;;5017070;28;46524;-71
2023/11/21 08:55:27;;;;;;;;;14.00;12.67;;;;;;;;5015847;28;45837;-72
2023/11/21 08:57:52;;;;;;;;;17.33;15.00;;;;;;;;5015922;28;45450;-72
2023/11/21 09:00:18;;;;;;;;;17.00;15.33;;;;;;;;5014022;28;45487;-72
2023/11/21 09:02:44;;;;;;;;;24.00;17.67;;;;;;;;5016650;28;45366;-73
2023/11/21 09:05:10;;;;;;;;;15.33;15.33;;;;;;;;5011040;28;46364;-71
2023/11/21 09:07:38;;;;;;;;;18.00;17.00;;;;;;;;5015662;28;45623;-72
2023/11/21 09:10:04;;;;;;;;;17.00;13.33;;;;;;;;5013154;28;45527;-72
2023/11/21 09:12:29;;;;;;;;;15.00;13.00;;;;;;;;5015210;28;45551;-72
2023/11/21 09:14:54;;;;;;;;;21.00;14.33;;;;;;;;5014713;28;45676;-72
2023/11/21 09:17:19;;;;;;;;;13.33;13.33;;;;;;;;5015705;28;45574;-71
2023/11/21 09:19:49;;;;;;;;;16.00;14.00;;;;;;;;5014829;28;45576;-71
2023/11/21 09:22:14;;;;;;;;;15.33;12.33;;;;;;;;5013813;28;45540;-74
2023/11/21 09:24:39;;;;;;;;;12.67;10.00;;;;;;;;5012855;28;46965;-72
2023/11/21 09:27:05;;;;;;;;;10.67;10.67;;;;;;;;5015821;28;45395;-71
2023/11/21 09:29:30;;;;;;;;;13.67;12.00;;;;;;;;5015355;28;45447;-71
2023/11/21 09:31:59;;;;;;;;;8.67;8.67;;;;;;;;5013708;28;45554;-71
2023/11/21 09:34:25;;;;;;;;;11.00;7.00;;;;;;;;5015986;28;46596;-71
2023/11/21 09:36:50;;;;;;;;;7.33;7.33;;;;;;;;5010625;28;45476;-72
2023/11/21 09:39:16;;;;;;;;;11.00;10.00;;;;;;;;5014267;28;45603;-73
2023/11/21 09:41:48;;;;;;;;;8.33;8.33;;;;;;;;5015183;28;45466;-72
2023/11/21 09:44:17;;;;;;;;;6.67;6.00;;;;;;;;5015481;28;46344;-72
2023/11/21 09:46:42;;;;;;;;;5.67;5.00;;;;;;;;5013591;28;45507;-72
2023/11/21 09:49:12;;;;;;;;;5.67;5.67;;;;;;;;5013851;28;45723;-72
2023/11/21 09:51:40;;;;;;;;;7.00;6.00;;;;;;;;5010283;28;45492;-72
2023/11/21 09:54:08;;;;;;;;;10.00;7.00;;;;;;;;5014015;28;47120;-72
2023/11/21 09:56:35;;;;;;;;;5.00;5.00;;;;;;;;5012028;28;45796;-72
2023/11/21 09:59:04;;;;;;;;;4.67;4.67;;;;;;;;5015146;28;45384;-71
2023/11/21 10:01:31;;;;;;;;;5.00;5.00;;;;;;;;5011916;28;45400;-72
2023/11/21 10:03:56;;;;;;;;;6.00;4.00;;;;;;;;5015368;28;46589;-72
2023/11/21 10:06:23;;;;;;;;;4.00;4.00;;;;;;;;5014506;28;46477;-72
2023/11/21 10:08:50;;;;;;;;;4.00;3.00;;;;;;;;4998309;28;45515;-73
2023/11/21 10:11:17;;;;;;;;;4.00;2.33;;;;;;;;5014541;28;45526;-72
2023/11/21 10:13:43;;;;;;;;;4.00;4.00;;;;;;;;5011873;28;45541;-73
2023/11/21 10:16:11;;;;;;;;;2.00;2.00;;;;;;;;5014927;28;46360;-73
2023/11/21 10:18:39;;;;;;;;;2.00;2.00;;;;;;;;5013000;28;45592;-72
2023/11/21 10:21:05;;;;;;;;;2.33;2.33;;;;;;;;5014958;28;45514;-74
2023/11/21 10:23:31;;;;;;;;;4.00;3.00;;;;;;;;5012527;28;46011;-71
2023/11/21 10:25:59;;;;;;;;;2.67;2.67;;;;;;;;5014640;28;45643;-72
2023/11/21 10:28:24;;;;;;;;;2.33;2.33;;;;;;;;5015816;28;46031;-74
2023/11/21 10:30:49;;;;;;;;;3.67;3.00;;;;;;;;5015298;28;45578;-69
2023/11/21 10:33:14;;;;;;;;;2.67;2.00;;;;;;;;5011578;28;45596;-69
2023/11/21 10:35:40;;;;;;;;;3.00;3.00;;;;;;;;5013149;28;46798;-70
2023/11/21 10:38:05;;;;;;;;;3.33;2.00;;;;;;;;5007278;28;45525;-69
2023/11/21 10:40:30;;;;;;;;;1.33;1.33;;;;;;;;5011290;28;46911;-70
2023/11/21 10:43:05;;;;;;;;;1.00;1.00;;;;;;;;5015297;28;46176;-69
2023/11/21 10:45:30;;;;;;;;;3.33;3.00;;;;;;;;5013871;28;45372;-68
2023/11/21 10:47:56;;;;;;;;;3.00;2.00;;;;;;;;5014773;28;45499;-70
2023/11/21 10:50:21;;;;;;;;;5.67;2.67;;;;;;;;5016485;28;45363;-69
2023/11/21 10:52:47;;;;;;;;;2.67;2.00;;;;;;;;5008983;28;46443;-69
2023/11/21 10:55:21;;;;;;;;;1.00;1.00;;;;;;;;5014014;28;45582;-70
2023/11/21 10:57:48;;;;;;;;;2.67;2.67;;;;;;;;5013208;28;45410;-70
2023/11/21 11:00:13;;;;;;;;;2.67;1.00;;;;;;;;5014934;28;45857;-70
2023/11/21 11:02:39;;;;;;;;;1.67;1.00;;;;;;;;5012972;28;46324;-70
2023/11/21 11:05:06;;;;;;;;;2.00;2.00;;;;;;;;5014151;28;45452;-70
2023/11/21 11:07:33;;;;;;;;;2.33;1.00;;;;;;;;5014261;28;45459;-70
2023/11/21 11:10:00;;;;;;;;;3.00;2.00;;;;;;;;5014294;28;45576;-69
2023/11/21 11:12:25;;;;;;;;;3.00;3.00;;;;;;;;5014393;28;47198;-70
2023/11/21 11:14:51;;;;;;;;;1.00;1.00;;;;;;;;5011124;28;45733;-68
2023/11/21 11:17:16;;;;;;;;;2.00;2.00;;;;;;;;5013241;28;45544;-69
2023/11/21 11:19:42;;;;;;;;;2.33;2.00;;;;;;;;5013273;28;45531;-69
2023/11/21 11:22:16;;;;;;;;;2.33;1.00;;;;;;;;5014167;28;46846;-68
2023/11/21 11:24:42;;;;;;;;;4.00;2.00;;;;;;;;5011342;28;45671;-69
2023/11/21 11:27:30;;;;;;;;;2.00;2.00;;;;;;;;5014217;28;45431;-69
2023/11/21 11:30:12;;;;;;;;;2.33;2.00;;;;;;;;5013286;28;46290;-73
2023/11/21 11:32:40;;;;;;;;;2.33;1.00;;;;;;;;5014042;28;47533;-72
2023/11/21 11:35:23;;;;;;;;;1.00;1.00;;;;;;;;5013599;28;45333;-70
2023/11/21 11:37:49;;;;;;;;;1.00;1.00;;;;;;;;5010302;28;45811;-70
2023/11/21 11:40:15;;;;;;;;;1.00;1.00;;;;;;;;4996237;28;45588;-69
2023/11/21 11:42:54;;;;;;;;;0.00;0.00;;;;;;;;5013426;28;46571;-70
2023/11/21 11:45:19;;;;;;;;;1.33;1.00;;;;;;;;5013170;28;45495;-69
2023/11/21 11:47:47;;;;;;;;;1.00;1.00;;;;;;;;5013925;28;45552;-71
2023/11/21 11:50:13;;;;;;;;;0.00;0.00;;;;;;;;5012358;28;46665;-69
2023/11/21 11:52:39;;;;;;;;;1.33;1.33;;;;;;;;5010285;28;46599;-68
2023/11/21 11:55:13;;;;;;;;;1.00;1.00;;;;;;;;5013097;28;45491;-69
2023/11/21 11:57:38;;;;;;;;;2.00;1.00;;;;;;;;5013130;28;45553;-70
2023/11/21 12:00:26;;;;;;;;;1.00;1.00;;;;;;;;5012931;28;45412;-69
2023/11/21 12:02:52;;;;;;;;;1.00;1.00;;;;;;;;5011897;28;46575;-68
2023/11/21 12:05:18;;;;;;;;;1.00;1.00;;;;;;;;5013060;28;45506;-69
2023/11/21 12:07:43;;;;;;;;;1.00;1.00;;;;;;;;5014032;28;45478;-68
2023/11/21 12:10:11;;;;;;;;;2.67;1.67;;;;;;;;5013692;28;45533;-66
2023/11/21 12:12:37;;;;;;;;;2.00;2.00;;;;;;;;5014388;28;45969;-69
2023/11/21 12:15:03;;;;;;;;;3.00;1.33;;;;;;;;5015006;28;45181;-68
2023/11/21 12:17:29;;;;;;;;;3.33;2.33;;;;;;;;5010187;28;45910;-68
2023/11/21 12:20:00;;;;;;;;;1.00;1.00;;;;;;;;5016839;28;45361;-70
2023/11/21 12:22:26;;;;;;;;;3.00;3.00;;;;;;;;5017756;28;45695;-69
2023/11/21 12:24:51;;;;;;;;;3.00;2.00;;;;;;;;5016754;28;45301;-69
2023/11/21 12:27:17;;;;;;;;;2.67;1.00;;;;;;;;5014324;28;45434;-67
2023/11/21 12:29:43;;;;;;;;;3.33;2.00;;;;;;;;5016012;28;45431;-67
2023/11/21 12:32:09;;;;;;;;;5.00;3.00;;;;;;;;5015304;28;46597;-68
2023/11/21 12:34:34;;;;;;;;;1.00;1.00;;;;;;;;5016082;28;45434;-68
2023/11/21 12:36:59;;;;;;;;;3.00;1.00;;;;;;;;5016774;28;45433;-70
2023/11/21 12:39:24;;;;;;;;;1.33;1.33;;;;;;;;5014814;28;45449;-70
2023/11/21 12:41:51;;;;;;;;;2.67;2.67;;;;;;;;5014986;28;47386;-67
2023/11/21 12:44:16;;;;;;;;;1.00;1.00;;;;;;;;5012252;28;46576;-67
2023/11/21 12:46:42;;;;;;;;;2.00;2.00;;;;;;;;5016362;28;45479;-68
2023/11/21 12:49:07;;;;;;;;;3.00;1.67;;;;;;;;5016270;28;45432;-66
2023/11/21 12:51:33;;;;;;;;;2.00;2.00;;;;;;;;5012948;28;46294;-67
2023/11/21 12:53:58;;;;;;;;;5.00;2.00;;;;;;;;5014683;28;45933;-70
2023/11/21 12:56:24;;;;;;;;;4.00;3.00;;;;;;;;5013284;28;45547;-69
2023/11/21 12:58:51;;;;;;;;;1.00;1.00;;;;;;;;5011727;28;45521;-67
2023/11/21 13:01:18;;;;;;;;;2.00;2.00;;;;;;;;5014700;28;46585;-69
2023/11/21 13:03:45;;;;;;;;;2.00;2.00;;;;;;;;5013437;28;45455;-68
2023/11/21 13:06:12;;;;;;;;;1.67;1.67;;;;;;;;5016476;28;45489;-69
2023/11/21 13:08:39;;;;;;;;;3.00;3.00;;;;;;;;5014873;28;45586;-67
2023/11/21 13:11:05;;;;;;;;;2.67;2.67;;;;;;;;5016226;28;46637;-67
2023/11/21 13:13:31;;;;;;;;;1.67;1.67;;;;;;;;5017252;28;45464;-68
2023/11/21 13:16:00;;;;;;;;;1.67;1.67;;;;;;;;4996941;28;45539;-69
2023/11/21 13:18:28;;;;;;;;;1.00;1.00;;;;;;;;5011936;28;45589;-68
2023/11/21 13:20:55;;;;;;;;;1.33;1.33;;;;;;;;5015430;28;46283;-68
2023/11/21 13:23:20;;;;;;;;;2.00;2.00;;;;;;;;5015800;28;45404;-67
2023/11/21 13:25:47;;;;;;;;;3.00;3.00;;;;;;;;5015065;28;45471;-67
2023/11/21 13:28:15;;;;;;;;;2.00;2.00;;;;;;;;5014470;28;45393;-68
2023/11/21 13:30:40;;;;;;;;;2.67;2.00;;;;;;;;5014092;28;46663;-70
2023/11/21 13:33:07;;;;;;;;;1.67;1.33;;;;;;;;5015707;28;45404;-67
2023/11/21 13:35:37;;;;;;;;;1.33;1.33;;;;;;;;5011919;28;45478;-67
2023/11/21 13:38:06;;;;;;;;;1.33;1.33;;;;;;;;5014993;28;45580;-67
2023/11/21 13:40:34;;;;;;;;;2.00;2.00;;;;;;;;4997055;28;47328;-68
2023/11/21 13:42:59;;;;;;;;;1.00;1.00;;;;;;;;5030438;22;45492;-68
2023/11/21 13:45:28;;;;;;;;;1.00;1.00;;;;;;;;5035857;28;45593;-70
2023/11/21 13:47:59;;;;;;;;;1.00;1.00;;;;;;;;5035541;28;45453;-69
2023/11/21 13:50:30;;;;;;;;;2.00;2.00;;;;;;;;5032295;28;46172;-67
2023/11/21 13:52:55;;;;;;;;;2.00;2.00;;;;;;;;5035545;28;45465;-67
2023/11/21 13:55:24;;;;;;;;;3.33;2.00;;;;;;;;5035255;28;45577;-68
2023/11/21 13:57:51;;;;;;;;;2.00;2.00;;;;;;;;5032585;28;45315;-67
2023/11/21 14:00:41;;;;;;;;;1.00;1.00;;;;;;;;5028831;28;46495;-67
2023/11/21 14:03:05;;;;;;;;;3.00;1.67;;;;;;;;5034671;28;45370;-68
2023/11/21 14:05:33;;;;;;;;;3.00;1.00;;;;;;;;5034819;28;45391;-68
2023/11/21 14:08:04;;;;;;;;;2.67;2.67;;;;;;;;5034926;28;45516;-70
2023/11/21 14:10:39;;;;;;;;;1.67;1.67;;;;;;;;5032126;28;46467;-70
2023/11/21 14:13:05;;;;;;;;;1.33;1.33;;;;;;;;5031411;28;45454;-68
2023/11/21 14:15:32;;;;;;;;;1.00;1.00;;;;;;;;5033810;28;45448;-69
2023/11/21 14:17:59;;;;;;;;;1.00;1.00;;;;;;;;5029830;28;45513;-68
2023/11/21 14:20:25;;;;;;;;;2.00;2.00;;;;;;;;5029475;28;45462;-70
2023/11/21 14:22:50;;;;;;;;;1.00;1.00;;;;;;;;5027678;28;45511;-70
2023/11/21 14:25:17;;;;;;;;;1.33;1.33;;;;;;;;5028652;28;45422;-68
2023/11/21 14:27:42;;;;;;;;;1.00;1.00;;;;;;;;5034420;28;45573;-67
2023/11/21 14:30:08;;;;;;;;;1.00;1.00;;;;;;;;5033041;28;47318;-69
2023/11/21 14:32:33;;;;;;;;;1.00;1.00;;;;;;;;5035521;28;45477;-68
2023/11/21 14:34:59;;;;;;;;;1.00;1.00;;;;;;;;5033149;28;45501;-69
2023/11/21 14:37:25;;;;;;;;;2.00;1.00;;;;;;;;5031606;28;45435;-69
2023/11/21 14:39:50;;;;;;;;;0.33;0.33;;;;;;;;5027740;28;46242;-68
2023/11/21 14:42:15;;;;;;;;;1.00;0.00;;;;;;;;5035794;28;45837;-67